Aérodrome :
LOGIN :

S'inscrire | Disclaimer

   EN    FR    IT 

 










Légende :    VFR   VFR Marginal   IFR   IFR Intensif   IFR Très Intensif
Visi : 
Plafond : 
>= 8 km
>= 3000ft
5 à 8 km
1000 à 3000 ft
1500m à 5 km
500 à 1000 ft
800 à 1500m
200 à 500 ft
< 800m
< 200 ft
Symboles :   Orages  Brouillard  Fortes neiges  Fortes précipitations  Vent > 20 kt
SIGMETs :   Divers  Orages  Givrage  Turbulence  Onde Orograph.  Cendres Volcan.







- Altitude de l'aérodrome : 1487 ft
- Code IATA : MUC


EDDM - München Franz Josef Strauss

DERNIER METAR :
  • 200920Z 09015KT 9999 FEW025 BKN220 16/09 Q1020 NOSIG

METARs EXPIRÉS :
  • 200850Z 08012KT 050V110 9999 FEW020 BKN220 16/10 Q1020 NOSIG
  • 200820Z 09012KT 9999 SCT020 SCT130 BKN220 15/10 Q1020 NOSIG
  • 200750Z 08011KT 050V120 9999 BKN018 15/11 Q1020 NOSIG
  • 200720Z 09013KT 9999 BKN017 BKN070 14/10 Q1020 NOSIG
  • 200650Z 08009KT 9999 -DZ FEW015 SCT022 BKN070 14/11 Q1020 NOSIG

TAF TAF EDDM
Valide du 20 à 06h jusqu'au 21 à 12h UTC


200500Z 2006/2112 07007KT 9999 BKN030
BECMG 2007/2009 08012KT
TEMPO 2011/2017 10015G25KT
BECMG 2018/2020 07007KT
Pas de NOTAMs connus pour ce terrain.



MET'MAP, la Météo Aéronautique d'un coup d'oeil ! - Copyright ORBIFLY Décembre 2007 - Disclaimer

ORBIFLY MET'MAP TEAM :

Programmation & Développement : Alexandra Zaïnal
Conception & Développement : Baudouin d'Aumeries
Co-Programmation & Développement : Marc-Olivier Méhu
Soutien technique & logistique : Manuel Goepfert

Contact : metmap@orbifly.com




SOURCES & CREDITS :

   NOAA